createdAt,value
2023-01-01T00:00:41.526Z,13.04
2023-01-01T00:03:08.639Z,13.09
2023-01-01T00:05:38.739Z,13.08
2023-01-01T00:08:05.815Z,13.12
2023-01-01T00:10:33.796Z,13.11
2023-01-01T00:13:01.206Z,13.12
2023-01-01T00:15:28.255Z,13.13
2023-01-01T00:17:55.592Z,13.15
2023-01-01T00:20:23.022Z,13.18
2023-01-01T00:22:55.066Z,13.18
2023-01-01T00:25:23.574Z,13.19
2023-01-01T00:27:51.143Z,13.17
2023-01-01T00:30:18.654Z,13.09
2023-01-01T00:32:54.991Z,13.11
2023-01-01T00:35:26.247Z,13.14
2023-01-01T00:37:54.611Z,13.09
2023-01-01T00:40:21.781Z,13.09
2023-01-01T00:42:48.845Z,13.09
2023-01-01T00:45:21.429Z,13.09
2023-01-01T00:47:53.841Z,13.06
2023-01-01T00:50:22.507Z,13.06
2023-01-01T00:52:50.408Z,13.08
2023-01-01T00:55:17.738Z,13.08
2023-01-01T00:57:44.901Z,13.07
2023-01-01T01:00:12.766Z,13.03
2023-01-01T01:02:40.168Z,13.02
2023-01-01T01:05:08.021Z,12.99
2023-01-01T01:07:39.310Z,12.96
2023-01-01T01:10:07.374Z,13.00
2023-01-01T01:12:35.843Z,12.99
2023-01-01T01:15:04.438Z,12.98
2023-01-01T01:17:31.767Z,12.99
2023-01-01T01:19:59.075Z,13.00
2023-01-01T01:22:29.027Z,12.95
2023-01-01T01:24:56.824Z,12.94
2023-01-01T01:27:24.502Z,12.93
2023-01-01T01:29:51.690Z,12.91
2023-01-01T01:32:19.047Z,12.85
2023-01-01T01:34:46.916Z,12.90
2023-01-01T01:37:13.942Z,12.91
2023-01-01T01:39:41.124Z,12.93
2023-01-01T01:42:08.332Z,12.91
2023-01-01T01:44:47.820Z,12.92
2023-01-01T01:47:54.527Z,12.89
2023-01-01T01:50:23.765Z,12.88
2023-01-01T01:53:13.131Z,12.86
2023-01-01T01:55:45.391Z,12.88
2023-01-01T01:58:15.660Z,12.89
2023-01-01T02:00:43.189Z,12.90
2023-01-01T02:03:20.428Z,12.91
2023-01-01T02:05:49.054Z,12.94
2023-01-01T02:08:16.892Z,12.98
2023-01-01T02:10:44.227Z,12.92
2023-01-01T02:13:11.788Z,12.98
2023-01-01T02:16:13.877Z,12.96
2023-01-01T02:18:51.818Z,12.92
2023-01-01T02:21:27.219Z,12.89
2023-01-01T02:24:13.030Z,12.91
2023-01-01T02:26:45.906Z,12.90
2023-01-01T02:29:28.081Z,12.89
2023-01-01T02:32:04.566Z,12.90
2023-01-01T02:34:40.070Z,12.90
2023-01-01T02:37:10.634Z,12.84
2023-01-01T02:39:43.290Z,12.84
2023-01-01T02:42:10.473Z,12.83
2023-01-01T02:44:42.222Z,12.81
2023-01-01T02:47:12.316Z,12.81
2023-01-01T02:49:49.699Z,12.77
2023-01-01T02:52:44.420Z,12.78
2023-01-01T02:55:32.589Z,12.72
2023-01-01T02:58:43.926Z,12.75
2023-01-01T03:01:35.067Z,12.73
2023-01-01T03:04:20.500Z,12.74
2023-01-01T03:06:56.791Z,12.72
2023-01-01T03:09:42.310Z,12.73
2023-01-01T03:12:25.519Z,12.72
2023-01-01T03:15:07.323Z,12.74
2023-01-01T03:17:39.055Z,12.76
2023-01-01T03:20:16.061Z,12.72
2023-01-01T03:25:18.837Z,12.78
2023-01-01T03:27:52.877Z,12.80
2023-01-01T03:30:21.549Z,12.84
2023-01-01T03:33:05.574Z,12.84
2023-01-01T03:36:20.508Z,12.86
2023-01-01T03:39:02.211Z,12.85
2023-01-01T03:41:41.093Z,12.86
2023-01-01T03:44:11.521Z,12.85
2023-01-01T03:46:38.626Z,12.82
2023-01-01T03:49:09.402Z,12.83
2023-01-01T03:51:51.382Z,12.83
2023-01-01T03:54:36.544Z,12.85
2023-01-01T03:57:20.830Z,12.88
2023-01-01T04:00:00.403Z,12.86
2023-01-01T04:02:41.220Z,12.91
2023-01-01T04:05:12.943Z,12.92
2023-01-01T04:10:17.563Z,12.93
2023-01-01T04:12:50.627Z,12.88
2023-01-01T04:15:23.318Z,12.92
2023-01-01T04:17:51.055Z,12.92
2023-01-01T04:20:18.912Z,12.91
2023-01-01T04:22:46.484Z,12.91
2023-01-01T04:25:15.033Z,12.92
2023-01-01T04:27:42.136Z,12.91
2023-01-01T04:30:11.675Z,12.93
2023-01-01T04:32:39.757Z,12.91
2023-01-01T04:35:09.006Z,12.93
2023-01-01T04:37:36.925Z,12.97
2023-01-01T04:40:05.831Z,12.98
2023-01-01T04:42:33.028Z,12.97
2023-01-01T04:45:00.150Z,12.96
2023-01-01T04:47:27.541Z,12.96
2023-01-01T04:49:54.996Z,12.98
2023-01-01T04:52:22.604Z,12.97
2023-01-01T04:54:49.694Z,12.92
2023-01-01T04:57:16.804Z,12.91
2023-01-01T04:59:44.109Z,12.91
2023-01-01T05:02:11.350Z,12.91
2023-01-01T05:04:38.566Z,12.89
2023-01-01T05:07:05.630Z,12.82
2023-01-01T05:09:32.807Z,12.83
2023-01-01T05:11:59.832Z,12.81
2023-01-01T05:14:26.991Z,12.83
2023-01-01T05:16:54.101Z,12.81
2023-01-01T05:19:21.209Z,12.77
2023-01-01T05:21:48.204Z,12.78
2023-01-01T05:24:16.096Z,12.79
2023-01-01T05:26:45.070Z,12.77
2023-01-01T05:29:16.961Z,12.77
2023-01-01T05:31:45.285Z,12.76
2023-01-01T05:34:12.614Z,12.76
2023-01-01T05:36:40.089Z,12.78
2023-01-01T05:39:09.503Z,12.74
2023-01-01T05:41:36.965Z,12.74
2023-01-01T05:44:06.478Z,12.72
2023-01-01T05:46:33.924Z,12.73
2023-01-01T05:49:01.589Z,12.75
2023-01-01T05:51:30.121Z,12.75
2023-01-01T05:53:58.705Z,12.73
2023-01-01T05:56:26.554Z,12.69
2023-01-01T05:58:54.492Z,12.65
2023-01-01T06:01:26.934Z,12.69
2023-01-01T06:03:55.541Z,12.69
2023-01-01T06:06:25.405Z,12.68
2023-01-01T06:08:54.502Z,12.65
2023-01-01T06:11:21.861Z,12.62
2023-01-01T06:13:51.725Z,12.60
2023-01-01T06:16:18.802Z,12.57
2023-01-01T06:18:45.892Z,12.58
2023-01-01T06:21:18.662Z,12.58
2023-01-01T06:23:46.462Z,12.58
2023-01-01T06:26:16.965Z,12.62
2023-01-01T06:28:45.086Z,12.66
2023-01-01T06:31:14.279Z,12.64
2023-01-01T06:33:41.662Z,12.63
2023-01-01T06:36:10.890Z,12.68
2023-01-01T06:38:42.414Z,12.69
2023-01-01T06:41:15.499Z,12.72
2023-01-01T06:43:43.208Z,12.73
2023-01-01T06:46:24.998Z,12.71
2023-01-01T06:48:57.374Z,12.72
2023-01-01T06:51:36.916Z,12.73
2023-01-01T06:54:04.910Z,12.74
2023-01-01T06:56:32.560Z,12.73
2023-01-01T06:59:00.179Z,12.77
2023-01-01T07:01:30.266Z,12.82
2023-01-01T07:04:00.393Z,12.88
2023-01-01T07:06:29.473Z,12.88
2023-01-01T07:08:57.200Z,12.93
2023-01-01T07:11:25.192Z,13.01
2023-01-01T07:13:52.318Z,13.07
2023-01-01T07:16:19.847Z,13.12
2023-01-01T07:18:49.237Z,13.16
2023-01-01T07:21:34.602Z,13.18
2023-01-01T07:24:04.274Z,13.21
2023-01-01T07:26:33.014Z,13.25
2023-01-01T07:29:08.599Z,13.29
2023-01-01T07:31:41.266Z,13.39
2023-01-01T07:34:13.165Z,13.41
2023-01-01T07:36:41.525Z,13.47
2023-01-01T07:39:09.074Z,13.50
2023-01-01T07:41:37.008Z,13.46
2023-01-01T07:44:04.653Z,13.44
2023-01-01T07:46:34.011Z,13.50
2023-01-01T07:49:01.141Z,13.48
2023-01-01T07:51:28.321Z,13.47
2023-01-01T07:53:59.270Z,13.50
2023-01-01T07:56:29.529Z,13.45
2023-01-01T07:58:56.675Z,13.50
2023-01-01T08:01:23.802Z,13.48
2023-01-01T08:03:53.065Z,13.48
2023-01-01T08:06:20.697Z,13.49
2023-01-01T08:08:47.835Z,13.53
2023-01-01T08:11:14.967Z,13.53
2023-01-01T08:13:42.055Z,13.51
2023-01-01T08:16:09.333Z,13.56
2023-01-01T08:18:36.811Z,13.53
2023-01-01T08:21:04.547Z,13.62
2023-01-01T08:23:31.734Z,13.63
2023-01-01T08:26:00.512Z,13.62
2023-01-01T08:28:27.941Z,13.62
2023-01-01T08:30:55.321Z,13.63
2023-01-01T08:33:23.375Z,13.64
2023-01-01T08:35:54.385Z,13.64
2023-01-01T08:38:22.233Z,13.63
2023-01-01T08:40:49.305Z,13.61
2023-01-01T08:43:16.323Z,13.66
2023-01-01T08:45:43.593Z,13.67
2023-01-01T08:48:10.637Z,13.72
2023-01-01T08:50:37.861Z,13.75
2023-01-01T08:53:05.011Z,13.71
2023-01-01T08:55:32.176Z,13.79
2023-01-01T08:57:59.370Z,13.80
2023-01-01T09:00:26.620Z,13.80
2023-01-01T09:02:54.360Z,13.81
2023-01-01T09:05:21.563Z,13.82
2023-01-01T09:07:48.660Z,13.82
2023-01-01T09:10:15.853Z,13.81
2023-01-01T09:12:43.002Z,13.84
2023-01-01T09:15:16.491Z,13.87
2023-01-01T09:17:43.630Z,13.91
2023-01-01T09:20:11.014Z,13.91
2023-01-01T09:22:38.121Z,13.92
2023-01-01T09:25:05.581Z,13.97
2023-01-01T09:27:32.763Z,14.00
2023-01-01T09:30:00.566Z,14.04
2023-01-01T09:32:30.067Z,14.08
2023-01-01T09:34:57.792Z,14.10
2023-01-01T09:37:25.076Z,14.15
2023-01-01T09:39:53.068Z,14.17
2023-01-01T09:42:34.145Z,14.19
2023-01-01T09:45:03.975Z,14.24
2023-01-01T09:47:38.563Z,14.27
2023-01-01T09:50:12.682Z,14.28
2023-01-01T09:53:07.040Z,14.26
2023-01-01T09:55:55.711Z,14.30
2023-01-01T09:58:26.857Z,14.32
2023-01-01T10:00:58.097Z,14.32
2023-01-01T10:03:49.770Z,14.38
2023-01-01T10:06:24.862Z,14.40
2023-01-01T10:09:22.612Z,14.39
2023-01-01T10:12:08.082Z,14.39
2023-01-01T10:14:41.059Z,14.40
2023-01-01T10:17:28.002Z,14.37
2023-01-01T10:20:00.183Z,14.38
2023-01-01T10:22:35.371Z,14.37
2023-01-01T10:25:15.752Z,14.40
2023-01-01T10:27:59.143Z,14.38
2023-01-01T10:30:28.411Z,14.41
2023-01-01T10:32:57.152Z,14.43
2023-01-01T10:35:46.667Z,14.44
2023-01-01T10:38:25.357Z,14.44
2023-01-01T10:41:03.663Z,14.45
2023-01-01T10:43:30.767Z,14.47
2023-01-01T10:46:00.691Z,14.49
2023-01-01T10:48:33.032Z,14.46
2023-01-01T10:51:15.321Z,14.41
2023-01-01T10:53:50.026Z,14.45
2023-01-01T10:56:23.145Z,14.47
2023-01-01T10:58:52.848Z,14.43
2023-01-01T11:01:34.027Z,14.45
2023-01-01T11:04:01.350Z,14.45
2023-01-01T11:06:48.911Z,14.44
2023-01-01T11:09:25.819Z,14.41
2023-01-01T11:12:24.595Z,14.38
2023-01-01T11:14:58.217Z,14.40
2023-01-01T11:17:28.919Z,14.41
2023-01-01T11:20:01.736Z,14.41
2023-01-01T11:22:43.982Z,14.36
2023-01-01T11:25:23.553Z,14.36
2023-01-01T11:27:51.809Z,14.35
2023-01-01T11:30:27.514Z,14.36
2023-01-01T11:33:00.827Z,14.37
2023-01-01T11:35:32.459Z,14.39
2023-01-01T11:38:00.526Z,14.38
2023-01-01T11:40:37.302Z,14.40
2023-01-01T11:43:07.221Z,14.41
2023-01-01T11:45:42.597Z,14.42
2023-01-01T11:48:19.184Z,14.42
2023-01-01T11:51:02.132Z,14.42
2023-01-01T11:53:31.276Z,14.45
2023-01-01T11:56:16.019Z,14.44
2023-01-01T11:58:54.720Z,14.44
2023-01-01T12:01:28.055Z,14.44
2023-01-01T12:04:07.186Z,14.43
2023-01-01T12:06:36.850Z,14.44
2023-01-01T12:09:18.472Z,14.41
2023-01-01T12:12:00.372Z,14.40
2023-01-01T12:14:48.463Z,14.39
2023-01-01T12:17:23.445Z,14.41
2023-01-01T12:19:53.231Z,14.38
2023-01-01T12:22:20.312Z,14.36
2023-01-01T12:24:48.906Z,14.33
2023-01-01T12:27:51.810Z,14.32
2023-01-01T12:30:21.158Z,14.29
2023-01-01T12:33:08.460Z,14.28
2023-01-01T12:35:43.584Z,14.27
2023-01-01T12:38:20.128Z,14.25
2023-01-01T12:41:01.365Z,14.23
2023-01-01T12:43:34.239Z,14.26
2023-01-01T12:46:19.653Z,14.23
2023-01-01T12:49:14.787Z,14.21
2023-01-01T12:51:57.713Z,14.19
2023-01-01T12:54:45.869Z,14.17
2023-01-01T12:57:48.412Z,14.13
2023-01-01T13:00:20.314Z,14.14
2023-01-01T13:02:59.756Z,14.14
2023-01-01T13:05:42.635Z,14.08
2023-01-01T13:08:10.182Z,14.10
2023-01-01T13:10:45.294Z,14.09
2023-01-01T13:13:14.201Z,14.07
2023-01-01T13:15:41.728Z,14.05
2023-01-01T13:18:14.869Z,14.03
2023-01-01T13:20:47.498Z,14.04
2023-01-01T13:23:29.682Z,14.02
2023-01-01T13:26:18.668Z,13.97
2023-01-01T13:28:59.717Z,13.92
2023-01-01T13:31:39.394Z,13.88
2023-01-01T13:34:32.635Z,13.85
2023-01-01T13:37:14.040Z,13.85
2023-01-01T13:39:59.781Z,13.83
2023-01-01T13:42:52.054Z,13.80
2023-01-01T13:48:39.429Z,13.77
2023-01-01T13:51:33.672Z,13.74
2023-01-01T13:54:27.022Z,13.72
2023-01-01T13:56:56.895Z,13.73
2023-01-01T13:59:30.001Z,13.71
2023-01-01T14:02:29.185Z,13.67
2023-01-01T14:05:02.446Z,13.65
2023-01-01T14:07:51.277Z,13.61
2023-01-01T14:10:31.664Z,13.58
2023-01-01T14:13:08.739Z,13.53
2023-01-01T14:15:44.893Z,13.46
2023-01-01T14:18:16.476Z,13.48
2023-01-01T14:20:48.193Z,13.46
2023-01-01T14:23:27.275Z,13.42
2023-01-01T14:25:54.663Z,13.37
2023-01-01T14:28:26.687Z,13.34
2023-01-01T14:30:55.706Z,13.34
2023-01-01T14:33:28.244Z,13.33
2023-01-01T14:35:57.953Z,13.30
2023-01-01T14:38:35.962Z,13.28
2023-01-01T14:41:18.242Z,13.22
2023-01-01T14:43:48.066Z,13.26
2023-01-01T14:46:34.387Z,13.24
2023-01-01T14:49:08.115Z,13.24
2023-01-01T14:51:40.841Z,13.27
2023-01-01T14:54:17.459Z,13.26
2023-01-01T14:56:47.788Z,13.25
2023-01-01T14:59:28.970Z,13.18
2023-01-01T15:02:28.575Z,13.19
2023-01-01T15:04:56.750Z,13.16
2023-01-01T15:07:26.697Z,13.13
2023-01-01T15:09:56.856Z,13.12
2023-01-01T15:12:24.662Z,13.08
2023-01-01T15:14:54.530Z,13.08
2023-01-01T15:17:23.918Z,13.09
2023-01-01T15:20:19.940Z,13.04
2023-01-01T15:22:47.649Z,12.98
2023-01-01T15:25:17.994Z,13.02
2023-01-01T15:27:49.049Z,12.99
2023-01-01T15:30:36.363Z,12.98
2023-01-01T15:33:17.192Z,12.95
2023-01-01T15:35:47.824Z,12.91
2023-01-01T15:38:26.973Z,12.87
2023-01-01T15:40:54.151Z,12.85
2023-01-01T15:43:31.033Z,12.83
2023-01-01T15:46:20.440Z,12.81
2023-01-01T15:48:53.653Z,12.76
2023-01-01T15:51:24.461Z,12.75
2023-01-01T15:54:01.376Z,12.72
2023-01-01T15:56:32.401Z,12.69
2023-01-01T15:59:09.404Z,12.69
2023-01-01T16:01:40.035Z,12.66
2023-01-01T16:04:28.356Z,12.60
2023-01-01T16:06:57.904Z,12.60
2023-01-01T16:09:25.169Z,12.51
2023-01-01T16:11:54.542Z,12.54
2023-01-01T16:14:21.897Z,12.53
2023-01-01T16:16:56.999Z,12.50
2023-01-01T16:19:24.960Z,12.48
2023-01-01T16:21:52.187Z,12.42
2023-01-01T16:24:20.136Z,12.32
2023-01-01T16:26:48.024Z,12.37
2023-01-01T16:29:16.146Z,12.33
2023-01-01T16:31:44.865Z,12.32
2023-01-01T16:34:14.516Z,12.28
2023-01-01T16:36:42.953Z,12.26
2023-01-01T16:39:10.274Z,12.23
2023-01-01T16:41:40.838Z,12.20
2023-01-01T16:44:09.543Z,12.15
2023-01-01T16:46:36.762Z,12.14
2023-01-01T16:49:04.785Z,12.13
2023-01-01T16:51:32.536Z,12.06
2023-01-01T16:54:01.102Z,12.10
2023-01-01T16:56:29.664Z,12.06
2023-01-01T16:59:02.848Z,12.03
2023-01-01T17:01:30.568Z,12.01
2023-01-01T17:03:58.012Z,11.98
2023-01-01T17:06:25.106Z,11.96
2023-01-01T17:08:52.289Z,11.94
2023-01-01T17:11:19.652Z,11.91
2023-01-01T17:13:48.213Z,11.90
2023-01-01T17:16:23.537Z,11.87
2023-01-01T17:21:40.714Z,11.85
2023-01-01T17:24:08.054Z,11.86
2023-01-01T17:26:35.450Z,11.81
2023-01-01T17:29:03.596Z,11.77
2023-01-01T17:31:31.275Z,11.80
2023-01-01T17:33:59.593Z,11.79
2023-01-01T17:36:27.724Z,11.77
2023-01-01T17:38:55.324Z,11.75
2023-01-01T17:41:22.921Z,11.74
2023-01-01T17:43:51.838Z,11.74
2023-01-01T17:46:22.413Z,11.73
2023-01-01T17:48:50.224Z,11.72
2023-01-01T17:51:18.929Z,11.72
2023-01-01T17:53:46.944Z,11.70
2023-01-01T17:56:15.870Z,11.72
2023-01-01T17:58:44.543Z,11.66
2023-01-01T18:01:14.458Z,11.71
2023-01-01T18:03:42.228Z,11.72
2023-01-01T18:06:09.524Z,11.71
2023-01-01T18:08:36.857Z,11.68
2023-01-01T18:11:03.984Z,11.66
2023-01-01T18:13:33.631Z,11.69
2023-01-01T18:16:02.112Z,11.68
2023-01-01T18:18:31.022Z,11.66
2023-01-01T18:21:05.512Z,11.70
2023-01-01T18:23:34.401Z,11.69
2023-01-01T18:26:06.997Z,11.68
2023-01-01T18:28:34.384Z,11.64
2023-01-01T18:31:28.988Z,11.64
2023-01-01T18:33:56.421Z,11.63
2023-01-01T18:36:27.376Z,11.61
2023-01-01T18:39:15.232Z,11.46
2023-01-01T18:42:01.023Z,11.53
2023-01-01T18:44:31.218Z,11.51
2023-01-01T18:47:04.230Z,11.49
2023-01-01T18:49:32.459Z,11.47
2023-01-01T18:52:28.073Z,11.44
2023-01-01T18:55:12.365Z,11.45
2023-01-01T18:57:40.795Z,11.42
2023-01-01T19:00:24.489Z,11.42
2023-01-01T19:02:51.573Z,11.40
2023-01-01T19:05:28.486Z,11.42
2023-01-01T19:08:07.765Z,11.43
2023-01-01T19:10:35.066Z,11.47
2023-01-01T19:13:15.341Z,11.48
2023-01-01T19:15:58.066Z,11.47
2023-01-01T19:18:31.964Z,11.51
2023-01-01T19:21:19.748Z,11.51
2023-01-01T19:23:54.175Z,11.54
2023-01-01T19:26:48.804Z,11.58
2023-01-01T19:29:15.905Z,11.61
2023-01-01T19:31:44.240Z,11.64
2023-01-01T19:34:11.478Z,11.61
2023-01-01T19:36:38.864Z,11.64
2023-01-01T19:39:07.099Z,11.63
2023-01-01T19:41:34.242Z,11.64
2023-01-01T19:44:02.050Z,11.64
2023-01-01T19:46:29.450Z,11.67
2023-01-01T19:48:57.720Z,11.70
2023-01-01T19:51:25.521Z,11.70
2023-01-01T19:53:53.887Z,11.73
2023-01-01T19:56:21.773Z,11.74
2023-01-01T19:58:49.709Z,11.75
2023-01-01T20:01:17.271Z,11.72
2023-01-01T20:04:00.438Z,11.75
2023-01-01T20:06:28.048Z,11.75
2023-01-01T20:08:55.305Z,11.77
2023-01-01T20:11:22.863Z,11.73
2023-01-01T20:13:50.001Z,11.74
2023-01-01T20:16:17.126Z,11.75
2023-01-01T20:18:44.301Z,11.71
2023-01-01T20:21:29.992Z,11.76
2023-01-01T20:23:57.093Z,11.70
2023-01-01T20:26:25.852Z,11.71
2023-01-01T20:29:11.361Z,11.72
2023-01-01T20:31:38.655Z,11.70
2023-01-01T20:34:05.758Z,11.62
2023-01-01T20:36:51.634Z,11.68
2023-01-01T20:39:18.689Z,11.65
2023-01-01T20:41:45.823Z,11.61
2023-01-01T20:44:12.869Z,11.62
2023-01-01T20:46:41.387Z,11.63
2023-01-01T20:49:08.966Z,11.60
2023-01-01T20:51:36.129Z,11.58
2023-01-01T20:54:03.837Z,11.58
2023-01-01T20:56:31.818Z,11.58
2023-01-01T20:59:04.451Z,11.53
2023-01-01T21:01:40.099Z,11.51
2023-01-01T21:04:07.489Z,11.51
2023-01-01T21:06:34.562Z,11.50
2023-01-01T21:09:05.124Z,11.49
2023-01-01T21:11:36.128Z,11.49
2023-01-01T21:14:03.634Z,11.48
2023-01-01T21:16:36.873Z,11.47
2023-01-01T21:19:07.283Z,11.39
2023-01-01T21:21:43.145Z,11.39
2023-01-01T21:24:20.426Z,11.39
2023-01-01T21:26:49.959Z,11.38
2023-01-01T21:29:20.088Z,11.38
2023-01-01T21:31:51.962Z,11.33
2023-01-01T21:34:35.233Z,11.37
2023-01-01T21:37:12.843Z,11.36
2023-01-01T21:39:40.064Z,11.35
2023-01-01T21:42:24.934Z,11.34
2023-01-01T21:44:57.581Z,11.33
2023-01-01T21:47:26.375Z,11.30
2023-01-01T21:49:56.282Z,11.31
2023-01-01T21:52:25.528Z,11.30
2023-01-01T21:54:53.495Z,11.30
2023-01-01T21:57:25.042Z,11.31
2023-01-01T21:59:54.363Z,11.27
2023-01-01T22:02:34.184Z,11.30
2023-01-01T22:05:17.943Z,11.32
2023-01-01T22:07:57.588Z,11.32
2023-01-01T22:10:42.960Z,11.35
2023-01-01T22:13:17.171Z,11.32
2023-01-01T22:15:44.835Z,11.37
2023-01-01T22:18:11.949Z,11.37
2023-01-01T22:20:42.048Z,11.39
2023-01-01T22:23:27.287Z,11.38
2023-01-01T22:25:54.479Z,11.33
2023-01-01T22:28:27.520Z,11.38
2023-01-01T22:31:02.579Z,11.40
2023-01-01T22:33:38.607Z,11.40
2023-01-01T22:36:27.166Z,11.38
2023-01-01T22:39:26.272Z,11.39
2023-01-01T22:41:53.675Z,11.39
2023-01-01T22:44:21.305Z,11.41
2023-01-01T22:46:48.863Z,11.38
2023-01-01T22:49:22.176Z,11.41
2023-01-01T22:51:52.296Z,11.41
2023-01-01T22:54:19.365Z,11.42
2023-01-01T22:56:46.581Z,11.39
2023-01-01T22:59:13.713Z,11.41
2023-01-01T23:01:40.896Z,11.39
2023-01-01T23:04:08.028Z,11.40
2023-01-01T23:06:35.178Z,11.40
2023-01-01T23:09:02.387Z,11.23
2023-01-01T23:11:29.497Z,11.22
2023-01-01T23:14:15.112Z,11.35
2023-01-01T23:16:42.249Z,11.26
2023-01-01T23:19:09.316Z,11.31
2023-01-01T23:21:36.926Z,11.28
2023-01-01T23:24:08.268Z,11.20
2023-01-01T23:26:35.589Z,11.21
2023-01-01T23:29:03.470Z,11.18
2023-01-01T23:31:31.793Z,11.17
2023-01-01T23:33:59.271Z,11.12
2023-01-01T23:36:28.383Z,11.08
2023-01-01T23:38:55.480Z,11.08
2023-01-01T23:41:23.370Z,11.04
2023-01-01T23:43:50.660Z,11.02
2023-01-01T23:46:18.880Z,10.99
2023-01-01T23:48:47.789Z,10.93
2023-01-01T23:51:16.589Z,10.93
2023-01-01T23:53:43.726Z,10.90
2023-01-01T23:56:11.057Z,10.85
2023-01-01T23:58:38.287Z,10.83
